createdAt,value
2023-03-30T00:00:26.941Z,569.3077
2023-03-30T00:01:28.010Z,610.0000
2023-03-30T00:02:29.178Z,545.6923
2023-03-30T00:03:30.348Z,598.1539
2023-03-30T00:04:31.516Z,671.3077
2023-03-30T00:05:32.462Z,640.2308
2023-03-30T00:06:33.523Z,562.1539
2023-03-30T00:07:34.612Z,723.6923
2023-03-30T00:08:35.728Z,731.1539
2023-03-30T00:09:36.846Z,650.1539
2023-03-30T00:10:37.945Z,610.6923
2023-03-30T00:11:39.017Z,635.9231
2023-03-30T00:12:40.125Z,620.9231
2023-03-30T00:13:41.218Z,763.5385
2023-03-30T00:14:42.344Z,679.0000
2023-03-30T00:15:43.419Z,769.5385
2023-03-30T00:16:44.579Z,794.8461
2023-03-30T00:17:45.690Z,621.6154
2023-03-30T00:18:46.719Z,590.6154
2023-03-30T00:19:47.817Z,602.4615
2023-03-30T00:20:48.944Z,583.3077
2023-03-30T00:21:50.022Z,594.7692
2023-03-30T00:22:51.115Z,616.6923
2023-03-30T00:23:52.228Z,604.2308
2023-03-30T00:24:53.314Z,693.1539
2023-03-30T00:25:54.411Z,633.3077
2023-03-30T00:26:55.530Z,725.9231
2023-03-30T00:27:56.614Z,604.6923
2023-03-30T00:28:57.719Z,625.2308
2023-03-30T00:29:58.794Z,668.5385
2023-03-30T00:30:59.911Z,565.0769
2023-03-30T00:32:01.024Z,579.1539
2023-03-30T00:33:02.134Z,680.6923
2023-03-30T00:34:03.180Z,582.2308
2023-03-30T00:35:04.295Z,542.5385
2023-03-30T00:36:05.405Z,598.9231
2023-03-30T00:37:06.499Z,601.2308
2023-03-30T00:38:07.567Z,533.9231
2023-03-30T00:39:08.680Z,524.4615
2023-03-30T00:40:09.769Z,542.6154
2023-03-30T00:41:10.884Z,558.6154
2023-03-30T00:42:12.004Z,630.3846
2023-03-30T00:43:13.045Z,552.6154
2023-03-30T00:44:14.148Z,516.3846
2023-03-30T00:45:15.230Z,541.0000
2023-03-30T00:46:16.375Z,517.0769
2023-03-30T00:47:17.436Z,500.7692
2023-03-30T00:48:18.530Z,534.6154
2023-03-30T00:49:19.630Z,490.0769
2023-03-30T00:50:20.734Z,576.6923
2023-03-30T00:51:21.831Z,612.0000
2023-03-30T00:52:22.907Z,531.6923
2023-03-30T00:53:24.022Z,644.3077
2023-03-30T00:54:25.103Z,551.5385
2023-03-30T00:55:26.179Z,599.9231
2023-03-30T00:56:27.320Z,626.6923
2023-03-30T00:57:28.479Z,628.3846
2023-03-30T00:58:29.504Z,794.5385
2023-03-30T00:59:30.564Z,777.1539
2023-03-30T01:00:31.676Z,714.7692
2023-03-30T01:01:32.838Z,623.7692
2023-03-30T01:02:33.956Z,711.0000
2023-03-30T01:03:35.132Z,638.5385
2023-03-30T01:04:36.087Z,663.1539
2023-03-30T01:05:37.146Z,703.1539
2023-03-30T01:06:38.335Z,669.5385
2023-03-30T01:07:39.327Z,855.0000
2023-03-30T01:08:40.433Z,787.6154
2023-03-30T01:09:41.516Z,726.0000
2023-03-30T01:10:42.623Z,662.2308
2023-03-30T01:11:43.726Z,730.7692
2023-03-30T01:12:44.816Z,725.0000
2023-03-30T01:13:45.945Z,688.4615
2023-03-30T01:14:46.995Z,684.4615
2023-03-30T01:15:48.121Z,710.0000
2023-03-30T01:16:49.220Z,752.2308
2023-03-30T01:17:50.314Z,696.4615
2023-03-30T01:18:51.375Z,662.5385
2023-03-30T01:19:52.456Z,746.5385
2023-03-30T01:20:53.553Z,664.5385
2023-03-30T01:21:54.659Z,662.3077
2023-03-30T01:22:55.749Z,665.3846
2023-03-30T01:23:56.833Z,711.6154
2023-03-30T01:24:57.943Z,733.3846
2023-03-30T01:25:59.024Z,677.9231
2023-03-30T01:27:00.165Z,604.7692
2023-03-30T01:28:01.210Z,616.9231
2023-03-30T01:29:02.356Z,695.7692
2023-03-30T01:30:03.412Z,671.6154
2023-03-30T01:31:04.755Z,615.0000
2023-03-30T01:32:05.922Z,629.0000
2023-03-30T01:33:06.738Z,633.6923
2023-03-30T01:34:07.805Z,642.0769
2023-03-30T01:35:08.929Z,617.0000
2023-03-30T01:36:10.031Z,659.5385
2023-03-30T01:37:11.115Z,612.6923
2023-03-30T01:38:12.179Z,583.5385
2023-03-30T01:39:13.298Z,579.6154
2023-03-30T01:40:14.385Z,632.3077
2023-03-30T01:41:15.490Z,609.3077
2023-03-30T01:42:16.583Z,639.0769
2023-03-30T01:43:17.711Z,664.9231
2023-03-30T01:44:18.774Z,667.3846
2023-03-30T01:45:19.872Z,631.4615
2023-03-30T01:46:21.027Z,643.3846
2023-03-30T01:47:22.108Z,638.3077
2023-03-30T01:48:23.136Z,636.4615
2023-03-30T01:49:24.258Z,635.2308
2023-03-30T01:50:25.338Z,602.2308
2023-03-30T01:51:26.457Z,627.8461
2023-03-30T01:52:27.541Z,611.4615
2023-03-30T01:53:28.647Z,660.9231
2023-03-30T01:54:29.725Z,667.8461
2023-03-30T01:55:30.826Z,676.3846
2023-03-30T01:56:31.918Z,733.2308
2023-03-30T01:57:33.063Z,726.1539
2023-03-30T01:58:34.102Z,649.3846
2023-03-30T01:59:35.209Z,685.3846
2023-03-30T02:00:36.316Z,650.0000
2023-03-30T02:01:37.434Z,671.3077
2023-03-30T02:02:38.580Z,630.1539
2023-03-30T02:03:39.706Z,711.2308
2023-03-30T02:04:40.666Z,624.7692
2023-03-30T02:05:41.802Z,713.4615
2023-03-30T02:06:42.853Z,668.0769
2023-03-30T02:07:44.026Z,724.8461
2023-03-30T02:08:45.052Z,711.2308
2023-03-30T02:09:46.158Z,680.7692
2023-03-30T02:10:47.246Z,673.0000
2023-03-30T02:11:48.359Z,692.9231
2023-03-30T02:12:49.472Z,674.6154
2023-03-30T02:13:50.531Z,640.6923
2023-03-30T02:14:51.625Z,643.6923
2023-03-30T02:15:52.751Z,644.3846
2023-03-30T02:16:53.880Z,736.1539
2023-03-30T02:17:55.047Z,730.3077
2023-03-30T02:18:56.013Z,821.6154
2023-03-30T02:19:57.120Z,765.3846
2023-03-30T02:20:58.209Z,691.8461
2023-03-30T02:21:59.300Z,723.0000
2023-03-30T02:23:00.380Z,709.4615
2023-03-30T02:24:01.499Z,783.4615
2023-03-30T02:25:02.570Z,706.3846
2023-03-30T02:26:03.679Z,732.1539
2023-03-30T02:27:04.777Z,732.8461
2023-03-30T02:28:05.936Z,694.6154
2023-03-30T02:29:06.954Z,685.8461
2023-03-30T02:30:08.076Z,774.1539
2023-03-30T02:31:09.166Z,757.1539
2023-03-30T02:32:10.251Z,693.2308
2023-03-30T02:33:11.377Z,721.6923
2023-03-30T02:34:12.478Z,650.4615
2023-03-30T02:35:13.521Z,706.2308
2023-03-30T02:36:14.681Z,751.6154
2023-03-30T02:37:15.701Z,689.2308
2023-03-30T02:38:16.832Z,667.0000
2023-03-30T02:39:17.894Z,645.5385
2023-03-30T02:40:19.019Z,679.0769
2023-03-30T02:41:20.092Z,710.0000
2023-03-30T02:42:21.182Z,579.3846
2023-03-30T02:43:22.279Z,690.3846
2023-03-30T02:44:23.377Z,738.3077
2023-03-30T02:45:24.454Z,630.1539
2023-03-30T02:46:25.626Z,605.9231
2023-03-30T02:47:26.689Z,641.8461
2023-03-30T02:48:27.787Z,637.0000
2023-03-30T02:49:28.857Z,633.0769
2023-03-30T02:50:29.964Z,627.2308
2023-03-30T02:51:31.031Z,630.1539
2023-03-30T02:52:32.141Z,635.1539
2023-03-30T02:53:33.236Z,622.5385
2023-03-30T02:54:34.345Z,632.8461
2023-03-30T02:55:35.423Z,631.5385
2023-03-30T02:56:36.533Z,628.6923
2023-03-30T02:57:37.627Z,675.4615
2023-03-30T02:58:38.751Z,637.0000
2023-03-30T02:59:39.832Z,622.6923
2023-03-30T03:00:40.930Z,657.2308
2023-03-30T03:01:42.086Z,595.3077
2023-03-30T03:02:43.199Z,581.6923
2023-03-30T03:03:44.293Z,652.1539
2023-03-30T03:04:45.308Z,639.2308
2023-03-30T03:05:46.404Z,665.1539
2023-03-30T03:06:47.508Z,610.0000
2023-03-30T03:07:48.586Z,619.7692
2023-03-30T03:08:49.763Z,676.7692
2023-03-30T03:09:50.792Z,687.3846
2023-03-30T03:10:51.916Z,709.1539
2023-03-30T03:11:53.005Z,630.7692
2023-03-30T03:12:54.097Z,686.2308
2023-03-30T03:13:55.209Z,620.1539
2023-03-30T03:14:56.312Z,620.8461
2023-03-30T03:15:57.388Z,612.7692
2023-03-30T03:16:58.541Z,677.6923
2023-03-30T03:18:00.727Z,656.2308
2023-03-30T03:19:00.736Z,630.0769
2023-03-30T03:20:01.800Z,653.5385
2023-03-30T03:21:03.306Z,646.2308
2023-03-30T03:22:03.989Z,613.9231
2023-03-30T03:23:05.108Z,591.6923
2023-03-30T03:24:06.202Z,632.3846
2023-03-30T03:25:07.298Z,584.1539
2023-03-30T03:26:08.381Z,616.3846
2023-03-30T03:27:09.502Z,605.1539
2023-03-30T03:28:10.595Z,639.9231
2023-03-30T03:29:11.722Z,656.1539
2023-03-30T03:30:12.794Z,689.8461
2023-03-30T03:31:14.018Z,649.5385
2023-03-30T03:32:14.989Z,637.6154
2023-03-30T03:33:16.098Z,649.0769
2023-03-30T03:34:17.268Z,647.9231
2023-03-30T03:35:18.364Z,668.4615
2023-03-30T03:36:19.500Z,665.4615
2023-03-30T03:37:20.554Z,702.2308
2023-03-30T03:38:21.646Z,691.1539
2023-03-30T03:39:22.777Z,693.6923
2023-03-30T03:40:23.841Z,660.4615
2023-03-30T03:41:24.940Z,673.5385
2023-03-30T03:42:26.049Z,674.0000
2023-03-30T03:43:27.153Z,681.8461
2023-03-30T03:44:28.476Z,722.0000
2023-03-30T03:45:29.332Z,780.9231
2023-03-30T03:46:30.429Z,761.0000
2023-03-30T03:47:31.565Z,827.6154
2023-03-30T03:48:32.613Z,695.1539
2023-03-30T03:49:33.753Z,749.5385
2023-03-30T03:50:34.793Z,764.8461
2023-03-30T03:51:35.910Z,800.6923
2023-03-30T03:52:36.975Z,862.2308
2023-03-30T03:53:38.108Z,850.2308
2023-03-30T03:54:39.199Z,813.9231
2023-03-30T03:55:40.295Z,912.7692
2023-03-30T03:56:41.399Z,920.0769
2023-03-30T03:57:42.476Z,901.0769
2023-03-30T03:58:43.572Z,911.9231
2023-03-30T03:59:44.988Z,873.4615
2023-03-30T04:00:45.802Z,894.2308
2023-03-30T04:01:46.878Z,883.6923
2023-03-30T04:02:47.961Z,852.9231
2023-03-30T04:03:49.056Z,834.5385
2023-03-30T04:04:50.199Z,866.9231
2023-03-30T04:05:51.243Z,845.9231
2023-03-30T04:06:52.323Z,781.0769
2023-03-30T04:07:53.473Z,827.7692
2023-03-30T04:08:54.516Z,872.0769
2023-03-30T04:09:55.684Z,813.8461
2023-03-30T04:10:56.724Z,800.0769
2023-03-30T04:11:57.815Z,816.0769
2023-03-30T04:12:58.903Z,814.2308
2023-03-30T04:14:00.040Z,806.0769
2023-03-30T04:15:01.475Z,796.0000
2023-03-30T04:16:02.229Z,776.1539
2023-03-30T04:17:03.296Z,704.5385
2023-03-30T04:18:04.445Z,763.3077
2023-03-30T04:19:05.498Z,766.2308
2023-03-30T04:20:06.622Z,711.3846
2023-03-30T04:21:07.796Z,800.9231
2023-03-30T04:22:08.802Z,771.3077
2023-03-30T04:23:09.997Z,745.7692
2023-03-30T04:24:10.988Z,763.0000
2023-03-30T04:25:12.093Z,712.7692
2023-03-30T04:26:13.185Z,773.5385
2023-03-30T04:27:14.294Z,756.2308
2023-03-30T04:28:15.380Z,700.8461
2023-03-30T04:29:16.460Z,670.2308
2023-03-30T04:30:17.609Z,697.1539
2023-03-30T04:31:18.711Z,723.4615
2023-03-30T04:32:19.937Z,728.0769
2023-03-30T04:33:20.886Z,685.9231
2023-03-30T04:34:22.019Z,640.4615
2023-03-30T04:35:23.483Z,697.6923
2023-03-30T04:36:24.194Z,644.0000
2023-03-30T04:37:25.271Z,667.3077
2023-03-30T04:38:26.390Z,672.9231
2023-03-30T04:39:27.490Z,678.1539
2023-03-30T04:40:28.613Z,654.3846
2023-03-30T04:41:29.673Z,632.7692
2023-03-30T04:42:30.830Z,667.9231
2023-03-30T04:43:31.877Z,641.5385
2023-03-30T04:44:33.035Z,629.6923
2023-03-30T04:45:34.150Z,618.3846
2023-03-30T04:46:35.183Z,576.6923
2023-03-30T04:47:36.326Z,574.3077
2023-03-30T04:48:37.379Z,571.2308
2023-03-30T04:49:38.470Z,629.4615
2023-03-30T04:50:39.592Z,675.4615
2023-03-30T04:51:40.669Z,553.1539
2023-03-30T04:52:41.777Z,592.1539
2023-03-30T04:53:42.853Z,557.6923
2023-03-30T04:54:43.991Z,530.0769
2023-03-30T04:55:45.078Z,644.0769
2023-03-30T04:56:46.207Z,553.3846
2023-03-30T04:57:47.286Z,545.9231
2023-03-30T04:58:48.381Z,546.0769
2023-03-30T04:59:49.469Z,519.2308
2023-03-30T05:00:50.616Z,553.7692
2023-03-30T05:01:51.690Z,565.6154
2023-03-30T05:02:52.872Z,535.6154
2023-03-30T05:03:53.906Z,573.4615
2023-03-30T05:04:54.962Z,557.3077
2023-03-30T05:05:56.097Z,530.0000
2023-03-30T05:06:57.163Z,635.0769
2023-03-30T05:07:58.280Z,486.3077
2023-03-30T05:08:59.389Z,484.0000
2023-03-30T05:10:00.471Z,494.3846
2023-03-30T05:11:01.712Z,524.1539
2023-03-30T05:12:02.655Z,516.6923
2023-03-30T05:13:03.731Z,575.2308
2023-03-30T05:14:04.856Z,535.1539
2023-03-30T05:15:05.941Z,516.6154
2023-03-30T05:16:07.067Z,518.5385
2023-03-30T05:17:08.171Z,518.0000
2023-03-30T05:18:09.288Z,466.0769
2023-03-30T05:19:10.321Z,526.0000
2023-03-30T05:20:11.422Z,517.6154
2023-03-30T05:21:12.523Z,406.3077
2023-03-30T05:22:13.621Z,566.5385
2023-03-30T05:23:14.708Z,604.8461
2023-03-30T05:24:15.823Z,519.7692
2023-03-30T05:25:16.915Z,573.9231
2023-03-30T05:26:18.083Z,559.0769
2023-03-30T05:27:19.098Z,551.7692
2023-03-30T05:28:20.208Z,443.8462
2023-03-30T05:29:21.280Z,414.0000
2023-03-30T05:30:22.392Z,427.0769
2023-03-30T05:31:23.501Z,493.1538
2023-03-30T05:32:24.611Z,485.8462
2023-03-30T05:33:25.662Z,519.0769
2023-03-30T05:34:26.768Z,613.3846
2023-03-30T05:35:27.848Z,451.3077
2023-03-30T05:36:28.990Z,493.6154
2023-03-30T05:37:30.051Z,537.2308
2023-03-30T05:38:31.163Z,526.0769
2023-03-30T05:39:32.296Z,532.3846
2023-03-30T05:40:33.353Z,591.6154
2023-03-30T05:41:34.441Z,647.3846
2023-03-30T05:42:35.550Z,669.3077
2023-03-30T05:43:36.620Z,704.7692
2023-03-30T05:44:37.739Z,712.3077
2023-03-30T05:45:38.814Z,722.2308
2023-03-30T05:46:40.022Z,719.9231
2023-03-30T05:47:41.037Z,735.3077
2023-03-30T05:48:42.996Z,730.3077
2023-03-30T05:49:44.049Z,762.2308
2023-03-30T05:50:45.118Z,752.6154
2023-03-30T05:51:45.406Z,772.0000
2023-03-30T05:52:46.514Z,759.6923
2023-03-30T05:53:47.592Z,769.0000
2023-03-30T05:54:48.746Z,852.7692
2023-03-30T05:55:49.796Z,908.8461
2023-03-30T05:56:52.412Z,884.0000
2023-03-30T05:57:51.976Z,839.3077
2023-03-30T05:58:53.087Z,873.5385
2023-03-30T05:59:54.168Z,915.1539
2023-03-30T06:00:55.288Z,850.8461
2023-03-30T06:01:56.392Z,885.6154
2023-03-30T06:02:57.565Z,881.6154
2023-03-30T06:03:58.702Z,878.6154
2023-03-30T06:04:59.691Z,880.6154
2023-03-30T06:06:00.760Z,896.6154
2023-03-30T06:07:01.884Z,931.3846
2023-03-30T06:08:02.955Z,932.4615
2023-03-30T06:09:04.066Z,978.6154
2023-03-30T06:10:05.157Z,946.2308
2023-03-30T06:11:06.461Z,937.6923
2023-03-30T06:12:07.554Z,956.0769
2023-03-30T06:13:08.449Z,952.5385
2023-03-30T06:14:09.541Z,944.3846
2023-03-30T06:15:10.641Z,919.4615
2023-03-30T06:16:11.744Z,989.4615
2023-03-30T06:17:12.860Z,920.7692
2023-03-30T06:18:14.061Z,913.0000
2023-03-30T06:19:15.030Z,903.7692
2023-03-30T06:20:16.095Z,923.8461
2023-03-30T06:21:17.217Z,964.1539
2023-03-30T06:22:18.319Z,939.1539
2023-03-30T06:23:19.418Z,891.6154
2023-03-30T06:24:20.491Z,874.0769
2023-03-30T06:25:21.610Z,872.7692
2023-03-30T06:26:22.700Z,905.3077
2023-03-30T06:27:23.836Z,937.0769
2023-03-30T06:28:24.893Z,893.1539
2023-03-30T06:29:26.010Z,895.0769
2023-03-30T06:30:27.150Z,880.7692
2023-03-30T06:31:28.254Z,908.1539
2023-03-30T06:32:29.355Z,933.3846
2023-03-30T06:33:30.416Z,910.0769
2023-03-30T06:34:31.499Z,852.6923
2023-03-30T06:35:32.657Z,866.6923
2023-03-30T06:36:45.127Z,903.6923
2023-03-30T06:37:35.838Z,878.8461
2023-03-30T06:38:35.890Z,884.9231
2023-03-30T06:39:37.011Z,886.6154
2023-03-30T06:40:38.090Z,858.3077
2023-03-30T06:41:39.203Z,883.4615
2023-03-30T06:42:40.310Z,891.2308
2023-03-30T06:43:41.387Z,881.0000
2023-03-30T06:44:42.484Z,821.2308
2023-03-30T06:45:43.608Z,886.8461
2023-03-30T06:46:44.687Z,879.0000
2023-03-30T06:47:46.080Z,852.9231
2023-03-30T06:48:46.873Z,855.5385
2023-03-30T06:49:48.002Z,830.0769
2023-03-30T06:50:49.075Z,849.2308
2023-03-30T06:51:50.189Z,894.5385
2023-03-30T06:52:51.313Z,903.5385
2023-03-30T06:53:52.386Z,867.2308
2023-03-30T06:54:53.464Z,874.6154
2023-03-30T06:55:54.633Z,860.0000
2023-03-30T06:56:55.700Z,876.3846
2023-03-30T06:57:56.816Z,846.6923
2023-03-30T06:58:57.868Z,831.3846
2023-03-30T06:59:59.038Z,806.0000
2023-03-30T07:01:00.086Z,858.4615
2023-03-30T07:02:01.174Z,863.1539
2023-03-30T07:03:02.306Z,801.5385
2023-03-30T07:04:03.452Z,808.8461
2023-03-30T07:05:04.470Z,813.6154
2023-03-30T07:06:05.578Z,857.9231
2023-03-30T07:07:06.684Z,821.8461
2023-03-30T07:08:07.787Z,818.0769
2023-03-30T07:09:08.867Z,885.6154
2023-03-30T07:10:09.997Z,933.4615
2023-03-30T07:11:11.045Z,860.3077
2023-03-30T07:12:12.174Z,938.8461
2023-03-30T07:13:13.311Z,938.5385
2023-03-30T07:14:14.351Z,970.3077
2023-03-30T07:15:15.433Z,896.5385
2023-03-30T07:16:16.590Z,945.6154
2023-03-30T07:17:18.018Z,1036.0000
2023-03-30T07:18:18.775Z,1078.6154
2023-03-30T07:19:19.810Z,1075.5385
2023-03-30T07:20:20.934Z,1077.3077
2023-03-30T07:21:22.007Z,1123.2307
2023-03-30T07:22:23.809Z,1149.7693
2023-03-30T07:23:24.577Z,1136.9231
2023-03-30T07:24:25.358Z,1184.0000
2023-03-30T07:25:26.406Z,1263.9231
2023-03-30T07:26:27.498Z,1252.9231
2023-03-30T07:27:28.677Z,1271.0000
2023-03-30T07:28:29.707Z,1295.3846
2023-03-30T07:29:30.769Z,1284.8462
2023-03-30T07:30:31.893Z,1285.9231
2023-03-30T07:31:32.997Z,1296.6923
2023-03-30T07:32:34.202Z,1329.4615
2023-03-30T07:33:35.241Z,1292.7693
2023-03-30T07:34:36.323Z,1286.6923
2023-03-30T07:35:37.455Z,1291.7693
2023-03-30T07:36:38.536Z,1270.6923
2023-03-30T07:37:39.611Z,1275.3077
2023-03-30T07:38:40.747Z,1257.2307
2023-03-30T07:39:41.827Z,1272.0769
2023-03-30T07:40:42.919Z,1217.1538
2023-03-30T07:41:44.012Z,1178.0000
2023-03-30T07:42:45.127Z,1145.3846
2023-03-30T07:43:46.569Z,1166.6154
2023-03-30T07:44:47.323Z,1193.7693
2023-03-30T07:45:48.417Z,1161.0769
2023-03-30T07:46:49.520Z,1200.6154
2023-03-30T07:47:50.633Z,1194.0000
2023-03-30T07:48:51.719Z,1149.5385
2023-03-30T07:49:52.793Z,1144.8462
2023-03-30T07:50:53.903Z,1143.8462
2023-03-30T07:51:54.998Z,1136.0000
2023-03-30T07:52:56.103Z,1266.3846
2023-03-30T07:53:57.213Z,1365.8462
2023-03-30T07:54:58.296Z,1482.0769
2023-03-30T07:55:59.378Z,1464.5385
2023-03-30T07:57:00.508Z,1367.1538
2023-03-30T07:58:01.587Z,1396.8462
2023-03-30T07:59:02.704Z,1332.6154
2023-03-30T08:00:03.778Z,1258.4615
2023-03-30T08:01:05.174Z,1185.3846
2023-03-30T08:02:05.971Z,1306.0000
2023-03-30T08:03:07.168Z,1310.0000
2023-03-30T08:04:08.293Z,1175.3077
2023-03-30T08:05:09.334Z,1122.2307
2023-03-30T08:06:10.371Z,1148.8462
2023-03-30T08:07:11.451Z,1134.3846
2023-03-30T08:08:12.561Z,1068.2307
2023-03-30T08:09:13.719Z,1013.4615
2023-03-30T08:10:14.729Z,980.5385
2023-03-30T08:11:15.851Z,1105.5385
2023-03-30T08:12:16.942Z,1016.5385
2023-03-30T08:13:19.842Z,930.4615
2023-03-30T08:14:19.173Z,1063.7693
2023-03-30T08:15:20.222Z,1034.2307
2023-03-30T08:16:21.359Z,1029.0000
2023-03-30T08:17:22.397Z,1062.4615
2023-03-30T08:18:23.498Z,967.6923
2023-03-30T08:19:24.605Z,1099.0769
2023-03-30T08:20:25.673Z,1049.9231
2023-03-30T08:21:26.790Z,1074.0769
2023-03-30T08:22:27.868Z,1089.4615
2023-03-30T08:23:28.960Z,1029.9231
2023-03-30T08:24:30.090Z,1035.6923
2023-03-30T08:25:31.166Z,1035.1538
2023-03-30T08:26:32.246Z,1021.9231
2023-03-30T08:27:33.390Z,1023.2308
2023-03-30T08:28:34.474Z,973.0769
2023-03-30T08:29:35.605Z,1053.3846
2023-03-30T08:30:36.694Z,1062.4615
2023-03-30T08:31:37.892Z,1072.0769
2023-03-30T08:32:38.944Z,1070.2307
2023-03-30T08:33:39.968Z,1117.4615
2023-03-30T08:34:41.060Z,1120.0000
2023-03-30T08:35:42.389Z,1113.4615
2023-03-30T08:36:43.318Z,1095.2307
2023-03-30T08:37:44.328Z,1214.6154
2023-03-30T08:38:45.435Z,1254.4615
2023-03-30T08:39:46.567Z,1240.9231
2023-03-30T08:40:47.600Z,1230.9231
2023-03-30T08:41:48.712Z,1174.6923
2023-03-30T08:42:49.814Z,1136.0000
2023-03-30T08:43:50.930Z,1183.2307
2023-03-30T08:44:52.001Z,1184.9231
2023-03-30T08:45:53.175Z,1185.3077
2023-03-30T08:46:54.197Z,1160.1538
2023-03-30T08:47:55.358Z,1167.2307
2023-03-30T08:48:56.370Z,1173.7693
2023-03-30T08:49:57.556Z,1182.5385
2023-03-30T08:50:58.663Z,1168.7693
2023-03-30T08:52:01.213Z,1184.1538
2023-03-30T08:53:00.770Z,1208.1538
2023-03-30T08:54:01.842Z,1298.1538
2023-03-30T08:55:03.067Z,1351.1538
2023-03-30T08:56:04.015Z,1369.4615
2023-03-30T08:57:05.141Z,1306.0769
2023-03-30T08:58:11.178Z,1262.6923
2023-03-30T08:59:07.307Z,1226.3846
2023-03-30T09:00:08.453Z,1204.6154
2023-03-30T09:01:09.593Z,1166.7693
2023-03-30T09:02:10.624Z,1183.9231
2023-03-30T09:03:11.726Z,1173.3846
2023-03-30T09:04:12.802Z,1175.1538
2023-03-30T09:05:14.158Z,1166.6154
2023-03-30T09:06:15.043Z,1149.7693
2023-03-30T09:07:16.092Z,1143.1538
2023-03-30T09:08:17.257Z,1157.0000
2023-03-30T09:09:18.281Z,1165.4615
2023-03-30T09:10:19.628Z,1153.5385
2023-03-30T09:11:20.465Z,1157.9231
2023-03-30T09:12:21.606Z,1146.5385
2023-03-30T09:13:22.701Z,1137.6154
2023-03-30T09:14:23.787Z,1147.9231
2023-03-30T09:15:24.933Z,1137.9231
2023-03-30T09:16:26.007Z,1098.7693
2023-03-30T09:17:27.110Z,1128.0769
2023-03-30T09:18:28.217Z,1123.7693
2023-03-30T09:19:29.253Z,1136.3846
2023-03-30T09:20:30.398Z,1109.6154
2023-03-30T09:21:31.474Z,1130.6154
2023-03-30T09:22:32.527Z,1121.6923
2023-03-30T09:23:33.637Z,1144.3846
2023-03-30T09:24:34.727Z,1097.6154
2023-03-30T09:25:36.163Z,1094.0000
2023-03-30T09:26:36.926Z,1048.0769
2023-03-30T09:27:38.032Z,1022.3077
2023-03-30T09:28:39.116Z,1066.0000
2023-03-30T09:29:40.244Z,1084.5385
2023-03-30T09:30:41.339Z,1056.9231
2023-03-30T09:31:42.452Z,1148.9231
2023-03-30T09:32:43.538Z,1129.0769
2023-03-30T09:33:44.638Z,1152.8462
2023-03-30T09:34:45.714Z,1141.0769
2023-03-30T09:35:46.876Z,1189.3077
2023-03-30T09:36:47.907Z,1211.5385
2023-03-30T09:37:49.038Z,1288.6923
2023-03-30T09:38:50.123Z,1306.3077
2023-03-30T09:39:51.218Z,1366.3846
2023-03-30T09:40:52.599Z,1396.7693
2023-03-30T09:41:53.416Z,1380.0769
2023-03-30T09:42:54.520Z,1378.0769
2023-03-30T09:43:55.607Z,1346.0000
2023-03-30T09:44:56.715Z,1331.4615
2023-03-30T09:45:57.894Z,1309.4615
2023-03-30T09:46:58.904Z,1292.9231
2023-03-30T09:48:00.038Z,1283.1538
2023-03-30T09:49:01.109Z,1274.6923
2023-03-30T09:50:02.247Z,1260.8462
2023-03-30T09:51:03.634Z,1224.5385
2023-03-30T09:52:04.429Z,1189.3077
2023-03-30T09:53:05.493Z,1157.6154
2023-03-30T09:54:06.602Z,1115.1538
2023-03-30T09:55:07.688Z,1101.3077
2023-03-30T09:56:08.811Z,1047.0000
2023-03-30T09:57:09.918Z,1001.8461
2023-03-30T09:58:11.092Z,995.7692
2023-03-30T09:59:12.077Z,922.5385
2023-03-30T10:00:13.202Z,887.3846
2023-03-30T10:01:14.690Z,873.6154
2023-03-30T10:02:15.384Z,803.3846
2023-03-30T10:03:16.563Z,771.0769
2023-03-30T10:04:17.708Z,755.4615
2023-03-30T10:05:18.649Z,700.3077
2023-03-30T10:06:19.804Z,647.8461
2023-03-30T10:07:20.856Z,583.5385
2023-03-30T10:08:24.426Z,534.2308
2023-03-30T10:09:23.083Z,487.8462
2023-03-30T10:10:24.165Z,455.6923
2023-03-30T10:11:25.270Z,416.5385
2023-03-30T10:12:26.351Z,402.1538
2023-03-30T10:13:27.439Z,400.0000
2023-03-30T10:14:29.047Z,400.0000
2023-03-30T10:15:29.656Z,400.0000
2023-03-30T10:16:30.830Z,400.0000
2023-03-30T10:17:31.890Z,400.0000
2023-03-30T10:18:32.994Z,400.0000
2023-03-30T10:19:36.985Z,400.0000
2023-03-30T10:20:35.135Z,400.0000
2023-03-30T10:21:36.261Z,400.0000
2023-03-30T10:22:37.358Z,400.0000
2023-03-30T10:23:38.459Z,400.0000
2023-03-30T10:24:39.840Z,400.0000
2023-03-30T10:25:40.629Z,400.0000
2023-03-30T10:26:41.759Z,400.0000
2023-03-30T10:27:42.815Z,400.0000
2023-03-30T10:28:43.944Z,400.0000
2023-03-30T10:29:45.021Z,400.0000
2023-03-30T10:30:46.153Z,400.0000
2023-03-30T10:31:47.238Z,400.0000
2023-03-30T10:32:48.335Z,400.0000
2023-03-30T10:33:49.412Z,400.0000
2023-03-30T10:34:50.525Z,400.0000
2023-03-30T10:35:51.632Z,400.0000
2023-03-30T10:36:54.678Z,400.0000
2023-03-30T10:37:53.822Z,400.0000
2023-03-30T10:38:54.921Z,400.0000
2023-03-30T10:39:56.006Z,400.0000
2023-03-30T10:40:57.401Z,400.0000
2023-03-30T10:42:00.011Z,400.0000
2023-03-30T10:42:59.297Z,400.0000
2023-03-30T10:44:00.467Z,400.3077
2023-03-30T10:45:01.492Z,400.0000
2023-03-30T10:46:16.433Z,400.0000
2023-03-30T10:47:04.739Z,400.0000
2023-03-30T10:48:04.792Z,400.0000
2023-03-30T10:49:05.879Z,400.0000
2023-03-30T10:50:06.982Z,400.0000
2023-03-30T10:51:08.100Z,410.3077
2023-03-30T10:52:09.187Z,427.3077
2023-03-30T10:53:10.275Z,422.2308
2023-03-30T10:54:11.352Z,430.6923
2023-03-30T10:55:12.478Z,455.0769
2023-03-30T10:56:13.562Z,460.6154
2023-03-30T10:57:14.834Z,466.6154
2023-03-30T10:58:15.755Z,482.0769
2023-03-30T10:59:16.861Z,477.8462
2023-03-30T11:00:17.955Z,465.1538
2023-03-30T11:01:19.060Z,458.3846
2023-03-30T11:02:20.206Z,479.5385
2023-03-30T11:03:21.343Z,494.7692
2023-03-30T11:04:24.096Z,493.2308
2023-03-30T11:05:23.452Z,511.3077
2023-03-30T11:06:24.536Z,501.6923
2023-03-30T11:07:25.653Z,501.2308
2023-03-30T11:08:26.739Z,500.5385
2023-03-30T11:09:27.904Z,482.3846
2023-03-30T11:10:28.943Z,469.6154
2023-03-30T11:11:30.023Z,474.0000
2023-03-30T11:12:31.154Z,490.0769
2023-03-30T11:13:32.229Z,441.6923
2023-03-30T11:14:33.296Z,427.9231
2023-03-30T11:15:34.401Z,433.4615
2023-03-30T11:16:35.535Z,441.0769
2023-03-30T11:17:36.669Z,448.3846
2023-03-30T11:18:37.713Z,422.8462
2023-03-30T11:19:38.780Z,453.5385
2023-03-30T11:20:39.865Z,441.3846
2023-03-30T11:21:40.962Z,440.6923
2023-03-30T11:22:42.068Z,482.3077
2023-03-30T11:23:43.170Z,479.4615
2023-03-30T11:24:44.238Z,496.6154
2023-03-30T11:25:45.355Z,477.2308
2023-03-30T11:26:46.434Z,476.1538
2023-03-30T11:27:47.656Z,461.7692
2023-03-30T11:28:48.638Z,440.0769
2023-03-30T11:29:49.737Z,423.4615
2023-03-30T11:30:50.836Z,414.3077
2023-03-30T11:31:52.055Z,404.0000
2023-03-30T11:32:53.121Z,400.2308
2023-03-30T11:33:54.129Z,400.0000
2023-03-30T11:34:55.211Z,402.0000
2023-03-30T11:35:56.394Z,419.7692
2023-03-30T11:36:57.459Z,424.3077
2023-03-30T11:37:58.608Z,438.7692
2023-03-30T11:38:59.664Z,452.1538
2023-03-30T11:40:00.794Z,461.4615
2023-03-30T11:41:01.847Z,447.3846
2023-03-30T11:42:02.970Z,484.6154
2023-03-30T11:43:04.096Z,591.2308
2023-03-30T11:44:05.176Z,540.1539
2023-03-30T11:45:06.254Z,550.3846
2023-03-30T11:46:07.594Z,555.3846
2023-03-30T11:47:08.460Z,599.9231
2023-03-30T11:48:09.626Z,641.5385
2023-03-30T11:49:10.646Z,635.2308
2023-03-30T11:50:11.768Z,613.0000
2023-03-30T11:51:12.885Z,619.3077
2023-03-30T11:52:13.970Z,674.6154